Port Ludlow, WA

4:07 PM PST on February 14, 2016 (GMT -0800)
Timberton | | Change Station
CLOSE
Current Station
Personal Weather Station
Location: Port Ludlow, WA
Elevation: 148 ft
Nearby Weather Stations
Active Advisory: Areal Flood Watch

Elev 148 ft 47.91 °N, 122.71 °W | Updated 1 second ago

Overcast
Overcast
51.8 °F
Feels Like 51.8 °F
N
0.0
Wind Variable Wind from East
Gusts 0.0 mph

Today
High -- | Low -- °F
--% Chance of Precip.
Yesterday
High -- | Low -- °F
Precip. -- in
Pressure 30.13 in
Visibility 10.0 miles
Clouds Mostly Cloudy 700 ft
Overcast 1400 ft
Dew Point 50 °F
Humidity 93%
Rainfall 0.05 in
Snow Depth Not available.
7:19 AM 5:31 PM
Waxing Crescent, 46% visible
METAR KPAE 142353Z 17008KT 10SM BKN007 OVC014 11/09 A3012 RMK AO2 SLP201 60000 T01110094 10111 20089 50002
Pressure 30.13 in
Visibility 10.0 miles
Clouds Mostly Cloudy 700 ft
Overcast 1400 ft
Dew Point 50 °F
Humidity 93%
Rainfall 0.05 in
Snow Depth Not available.
7:19 AM 5:31 PM
Waxing Crescent, 46% visible
METAR KPAE 142353Z 17008KT 10SM BKN007 OVC014 11/09 A3012 RMK AO2 SLP201 60000 T01110094 10111 20089 50002

10-Day Weather Forecast

Almanac

Astronomy

Feb. 14, 2016 Rise Set
Actual Time
Civil Twilight
Nautical Twilight
Astronomical Twilight
Moon
Length of Visible Light
Length of Day
Tomorrow will be .
, % of the Moon is Illuminated

Today's Extremes

State Highs State Lows

Community

WunderPhotos

Upload Photos

1,892,937 photos uploaded!

WunderBlog® & News

Nearby

Air Quality

  Air Quality AQ Index Pollutant
Not available.

Snow Depth

Station Depth Elevation

Earthquake Activity

City Distance Mag. Time & Date
Minimum magnitude displayed is 2.5.

Coastal Water Temperatures

Place Temperature

Stations

Nearby Weather Stations

Station Location Temp. Windchill Dew Point Humidity Wind Precip. Elev Updated Type
                   

Watches & Warnings

Areal Flood Watch
Issued: 3:22 PM PST Feb. 14, 2016 – National Weather Service

... Flood Watch in effect through Tuesday morning...

The National Weather Service in Seattle has issued a

* Flood Watch for a portion of northwest Washington... including the
following County... Mason.

* Through Tuesday morning

* heavy rain in the Olympic Mountains tonight through Monday night
may push the Skokomish River over flood stage. The river is
already running high from heavy rain Friday and Saturday.

Precautionary/preparedness actions...

A Flood Watch means there is a potential for flooding based on
current forecasts.

You should monitor later forecasts and be alert for possible flood
warnings. Those living in areas prone to flooding should be prepared
to take action should flooding develop.